SKAR/AXM METAR and TAF weather

Enter ICAO airport designator
Station Type Date Time Source
SKAR METAR 2022/06/27 04:00 UTC NOAA

SKAR 270400Z 00000KT 7000 VCFG FEW010 SCT020 18/18 Q1023 RMK A3022


Station Type Date Time Source
SKAR Decoded METAR 2022/06/27 04:00 UTC NOAA

Armenia / El Eden, Colombia (SKAR) 04-30N 075-43W 1219M
Jun 27, 2022 - 12:00 AM EDT / 2022.06.27 0400 UTC
Wind: Calm:0
Visibility: 4 mile(s):0
Sky conditions: partly cloudy
Weather: fog in the vicinity
Temperature: 64 F (18 C)
Dew Point: 64 F (18 C)
Relative Humidity: 100%
Pressure (altimeter): 30.21 in. Hg (1023 hPa)
ob: SKAR 270400Z 00000KT 7000 VCFG FEW010 SCT020 18/18 Q1023 RMK A3022
cycle: 4

Station Type Date Time Source
SKAR TAF 2022/06/27 06:45 UTC NOAA

TAF TAF SKAR 270430Z 2706/2806 00000KT 5000 DZ BKN015
BECMG 2708/2710 3000 BR BKN010
BECMG 2714/2716 9999 NSW SCT020
TEMPO 2721/2801 DZ SCT015CB TX26/2719Z TN17/2711Z

Example: see airport list